sensor_id;sensor_type;location;lat;lon;timestamp;temperature;humidity
16515;DHT22;8370;52.556;7.970;2022-11-20T00:01:48;-2.60;99.90
16515;DHT22;8370;52.556;7.970;2022-11-20T00:04:13;-2.60;99.90
16515;DHT22;8370;52.556;7.970;2022-11-20T00:06:39;-2.60;99.90
16515;DHT22;8370;52.556;7.970;2022-11-20T00:09:04;-2.50;99.90
16515;DHT22;8370;52.556;7.970;2022-11-20T00:11:31;-2.50;99.90
16515;DHT22;8370;52.556;7.970;2022-11-20T00:13:59;-2.50;99.90
16515;DHT22;8370;52.556;7.970;2022-11-20T00:16:26;-2.60;99.90
16515;DHT22;8370;52.556;7.970;2022-11-20T00:18:53;-2.50;99.90
16515;DHT22;8370;52.556;7.970;2022-11-20T00:21:25;-2.50;99.90
16515;DHT22;8370;52.556;7.970;2022-11-20T00:23:53;-2.50;99.90
16515;DHT22;8370;52.556;7.970;2022-11-20T00:26:20;-2.50;99.90
16515;DHT22;8370;52.556;7.970;2022-11-20T00:29:00;-2.40;99.90
16515;DHT22;8370;52.556;7.970;2022-11-20T00:31:26;-2.40;99.90
16515;DHT22;8370;52.556;7.970;2022-11-20T00:33:52;-2.30;99.90
16515;DHT22;8370;52.556;7.970;2022-11-20T00:36:23;-2.30;99.90
16515;DHT22;8370;52.556;7.970;2022-11-20T00:38:53;-2.30;99.90
16515;DHT22;8370;52.556;7.970;2022-11-20T00:41:19;-2.30;99.90
16515;DHT22;8370;52.556;7.970;2022-11-20T00:43:45;-2.20;99.90
16515;DHT22;8370;52.556;7.970;2022-11-20T00:46:18;-2.20;99.90
16515;DHT22;8370;52.556;7.970;2022-11-20T00:48:45;-2.30;99.90
16515;DHT22;8370;52.556;7.970;2022-11-20T00:51:13;-2.30;99.90
16515;DHT22;8370;52.556;7.970;2022-11-20T00:53:38;-2.20;99.90
16515;DHT22;8370;52.556;7.970;2022-11-20T00:56:06;-2.20;99.90
16515;DHT22;8370;52.556;7.970;2022-11-20T00:58:37;-2.20;99.90
16515;DHT22;8370;52.556;7.970;2022-11-20T01:01:06;-2.20;99.90
16515;DHT22;8370;52.556;7.970;2022-11-20T01:03:33;-2.20;99.90
16515;DHT22;8370;52.556;7.970;2022-11-20T01:06:03;-2.10;99.90
16515;DHT22;8370;52.556;7.970;2022-11-20T01:08:34;-2.10;99.90
16515;DHT22;8370;52.556;7.970;2022-11-20T01:11:06;-2.10;99.90
16515;DHT22;8370;52.556;7.970;2022-11-20T01:13:32;-2.10;99.90
16515;DHT22;8370;52.556;7.970;2022-11-20T01:16:09;-2.00;99.90
16515;DHT22;8370;52.556;7.970;2022-11-20T01:18:37;-2.00;99.90
16515;DHT22;8370;52.556;7.970;2022-11-20T01:21:11;-2.00;99.90
16515;DHT22;8370;52.556;7.970;2022-11-20T01:23:40;-2.00;99.90
16515;DHT22;8370;52.556;7.970;2022-11-20T01:26:08;-1.90;99.90
16515;DHT22;8370;52.556;7.970;2022-11-20T01:28:34;-2.00;99.90
16515;DHT22;8370;52.556;7.970;2022-11-20T01:31:01;-2.00;99.90
16515;DHT22;8370;52.556;7.970;2022-11-20T01:33:26;-1.90;99.90
16515;DHT22;8370;52.556;7.970;2022-11-20T01:35:53;-1.90;99.90
16515;DHT22;8370;52.556;7.970;2022-11-20T01:38:18;-1.90;99.90
16515;DHT22;8370;52.556;7.970;2022-11-20T01:40:45;-1.90;99.90
16515;DHT22;8370;52.556;7.970;2022-11-20T01:43:19;-1.90;99.90
16515;DHT22;8370;52.556;7.970;2022-11-20T01:46:13;-1.90;99.90
16515;DHT22;8370;52.556;7.970;2022-11-20T01:48:51;-1.90;99.90
16515;DHT22;8370;52.556;7.970;2022-11-20T01:51:42;-1.90;99.90
16515;DHT22;8370;52.556;7.970;2022-11-20T01:54:15;-1.90;99.90
16515;DHT22;8370;52.556;7.970;2022-11-20T01:56:43;-1.90;99.90
16515;DHT22;8370;52.556;7.970;2022-11-20T01:59:10;-1.90;99.90
16515;DHT22;8370;52.556;7.970;2022-11-20T02:01:37;-1.80;99.90
16515;DHT22;8370;52.556;7.970;2022-11-20T02:04:04;-1.80;99.90
16515;DHT22;8370;52.556;7.970;2022-11-20T02:06:36;-1.70;99.90
16515;DHT22;8370;52.556;7.970;2022-11-20T02:09:03;-1.70;99.90
16515;DHT22;8370;52.556;7.970;2022-11-20T02:11:30;-1.80;99.90
16515;DHT22;8370;52.556;7.970;2022-11-20T02:13:56;-1.70;99.90
16515;DHT22;8370;52.556;7.970;2022-11-20T02:18:51;-1.80;99.90
16515;DHT22;8370;52.556;7.970;2022-11-20T02:22:17;-1.80;99.90
16515;DHT22;8370;52.556;7.970;2022-11-20T02:24:22;-1.80;99.90
16515;DHT22;8370;52.556;7.970;2022-11-20T02:27:09;-1.80;99.90
16515;DHT22;8370;52.556;7.970;2022-11-20T02:29:48;-1.80;99.90
16515;DHT22;8370;52.556;7.970;2022-11-20T02:32:20;-1.80;99.90
16515;DHT22;8370;52.556;7.970;2022-11-20T02:34:46;-1.70;99.90
16515;DHT22;8370;52.556;7.970;2022-11-20T02:37:12;-1.70;99.90
16515;DHT22;8370;52.556;7.970;2022-11-20T02:39:38;-1.70;99.90
16515;DHT22;8370;52.556;7.970;2022-11-20T02:42:04;-1.70;99.90
16515;DHT22;8370;52.556;7.970;2022-11-20T02:44:30;-1.60;99.90
16515;DHT22;8370;52.556;7.970;2022-11-20T02:46:57;-1.60;99.90
16515;DHT22;8370;52.556;7.970;2022-11-20T02:49:24;-1.60;99.90
16515;DHT22;8370;52.556;7.970;2022-11-20T02:51:49;-1.60;99.90
16515;DHT22;8370;52.556;7.970;2022-11-20T02:54:15;-1.70;99.90
16515;DHT22;8370;52.556;7.970;2022-11-20T02:56:41;-1.60;99.90
16515;DHT22;8370;52.556;7.970;2022-11-20T02:59:07;-1.60;99.90
16515;DHT22;8370;52.556;7.970;2022-11-20T03:01:32;-1.60;99.90
16515;DHT22;8370;52.556;7.970;2022-11-20T03:03:58;-1.50;99.90
16515;DHT22;8370;52.556;7.970;2022-11-20T03:06:23;-1.50;99.90
16515;DHT22;8370;52.556;7.970;2022-11-20T03:08:49;-1.60;99.90
16515;DHT22;8370;52.556;7.970;2022-11-20T03:11:15;-1.60;99.90
16515;DHT22;8370;52.556;7.970;2022-11-20T03:13:41;-1.60;99.90
16515;DHT22;8370;52.556;7.970;2022-11-20T03:16:18;-1.60;99.90
16515;DHT22;8370;52.556;7.970;2022-11-20T03:18:44;-1.60;99.90
16515;DHT22;8370;52.556;7.970;2022-11-20T03:21:11;-1.60;99.90
16515;DHT22;8370;52.556;7.970;2022-11-20T03:23:37;-1.60;99.90
16515;DHT22;8370;52.556;7.970;2022-11-20T03:26:17;-1.60;99.90
16515;DHT22;8370;52.556;7.970;2022-11-20T03:28:49;-1.60;99.90
16515;DHT22;8370;52.556;7.970;2022-11-20T03:31:16;-1.50;99.90
16515;DHT22;8370;52.556;7.970;2022-11-20T03:33:42;-1.50;99.90
16515;DHT22;8370;52.556;7.970;2022-11-20T03:36:13;-1.40;99.90
16515;DHT22;8370;52.556;7.970;2022-11-20T03:38:40;-1.40;99.90
16515;DHT22;8370;52.556;7.970;2022-11-20T03:41:08;-1.40;99.90
16515;DHT22;8370;52.556;7.970;2022-11-20T03:43:34;-1.50;99.90
16515;DHT22;8370;52.556;7.970;2022-11-20T03:46:00;-1.40;99.90
16515;DHT22;8370;52.556;7.970;2022-11-20T03:48:26;-1.40;99.90
16515;DHT22;8370;52.556;7.970;2022-11-20T03:50:52;-1.40;99.90
16515;DHT22;8370;52.556;7.970;2022-11-20T03:53:19;-1.30;99.90
16515;DHT22;8370;52.556;7.970;2022-11-20T03:55:45;-1.30;99.90
16515;DHT22;8370;52.556;7.970;2022-11-20T03:58:15;-1.30;99.90
16515;DHT22;8370;52.556;7.970;2022-11-20T04:00:40;-1.30;99.90
16515;DHT22;8370;52.556;7.970;2022-11-20T04:03:06;-1.30;99.90
16515;DHT22;8370;52.556;7.970;2022-11-20T04:05:33;-1.20;99.90
16515;DHT22;8370;52.556;7.970;2022-11-20T04:07:59;-1.20;99.90
16515;DHT22;8370;52.556;7.970;2022-11-20T04:10:25;-1.20;99.90
16515;DHT22;8370;52.556;7.970;2022-11-20T04:12:51;-1.10;99.90
16515;DHT22;8370;52.556;7.970;2022-11-20T04:15:16;-1.10;99.90
16515;DHT22;8370;52.556;7.970;2022-11-20T04:17:42;-1.20;99.90
16515;DHT22;8370;52.556;7.970;2022-11-20T04:20:08;-1.20;99.90
16515;DHT22;8370;52.556;7.970;2022-11-20T04:22:33;-1.20;99.90
16515;DHT22;8370;52.556;7.970;2022-11-20T04:24:59;-1.10;99.90
16515;DHT22;8370;52.556;7.970;2022-11-20T04:27:24;-1.10;99.90
16515;DHT22;8370;52.556;7.970;2022-11-20T04:29:50;-1.10;99.90
16515;DHT22;8370;52.556;7.970;2022-11-20T04:32:15;-1.20;99.90
16515;DHT22;8370;52.556;7.970;2022-11-20T04:34:41;-1.10;99.90
16515;DHT22;8370;52.556;7.970;2022-11-20T04:37:06;-1.10;99.90
16515;DHT22;8370;52.556;7.970;2022-11-20T04:39:32;-1.10;99.90
16515;DHT22;8370;52.556;7.970;2022-11-20T04:41:57;-1.10;99.90
16515;DHT22;8370;52.556;7.970;2022-11-20T04:44:49;-1.00;99.90
16515;DHT22;8370;52.556;7.970;2022-11-20T04:47:14;-1.00;99.90
16515;DHT22;8370;52.556;7.970;2022-11-20T04:49:40;-1.00;99.90
16515;DHT22;8370;52.556;7.970;2022-11-20T04:52:05;-1.00;99.90
16515;DHT22;8370;52.556;7.970;2022-11-20T04:54:31;-1.00;99.90
16515;DHT22;8370;52.556;7.970;2022-11-20T04:56:56;-0.90;99.90
16515;DHT22;8370;52.556;7.970;2022-11-20T04:59:22;-0.90;99.90
16515;DHT22;8370;52.556;7.970;2022-11-20T05:01:47;-0.90;99.90
16515;DHT22;8370;52.556;7.970;2022-11-20T05:04:13;-0.90;99.90
16515;DHT22;8370;52.556;7.970;2022-11-20T05:06:39;-1.00;99.90
16515;DHT22;8370;52.556;7.970;2022-11-20T05:09:04;-0.90;99.90
16515;DHT22;8370;52.556;7.970;2022-11-20T05:11:31;-0.90;99.90
16515;DHT22;8370;52.556;7.970;2022-11-20T05:13:58;-0.90;99.90
16515;DHT22;8370;52.556;7.970;2022-11-20T05:16:25;-0.90;99.90
16515;DHT22;8370;52.556;7.970;2022-11-20T05:18:52;-0.80;99.90
16515;DHT22;8370;52.556;7.970;2022-11-20T05:21:18;-0.80;99.90
16515;DHT22;8370;52.556;7.970;2022-11-20T05:23:45;-0.80;99.90
16515;DHT22;8370;52.556;7.970;2022-11-20T05:26:18;-0.80;99.90
16515;DHT22;8370;52.556;7.970;2022-11-20T05:28:44;-0.80;99.90
16515;DHT22;8370;52.556;7.970;2022-11-20T05:31:13;-0.80;99.90
16515;DHT22;8370;52.556;7.970;2022-11-20T05:33:43;-0.80;99.90
16515;DHT22;8370;52.556;7.970;2022-11-20T05:36:10;-0.90;99.90
16515;DHT22;8370;52.556;7.970;2022-11-20T05:38:36;-1.00;99.90
16515;DHT22;8370;52.556;7.970;2022-11-20T05:41:12;-1.10;99.90
16515;DHT22;8370;52.556;7.970;2022-11-20T05:43:39;-1.20;99.90
16515;DHT22;8370;52.556;7.970;2022-11-20T05:46:06;-1.20;99.90
16515;DHT22;8370;52.556;7.970;2022-11-20T05:48:33;-1.20;99.90
16515;DHT22;8370;52.556;7.970;2022-11-20T05:51:00;-1.20;99.90
16515;DHT22;8370;52.556;7.970;2022-11-20T05:53:26;-1.20;99.90
16515;DHT22;8370;52.556;7.970;2022-11-20T05:55:59;-1.20;99.90
16515;DHT22;8370;52.556;7.970;2022-11-20T05:58:25;-1.10;99.90
16515;DHT22;8370;52.556;7.970;2022-11-20T06:00:51;-1.00;99.90
16515;DHT22;8370;52.556;7.970;2022-11-20T06:03:17;-1.00;99.90
16515;DHT22;8370;52.556;7.970;2022-11-20T06:05:42;-0.90;99.90
16515;DHT22;8370;52.556;7.970;2022-11-20T06:08:08;-0.90;99.90
16515;DHT22;8370;52.556;7.970;2022-11-20T06:10:33;-0.90;99.90
16515;DHT22;8370;52.556;7.970;2022-11-20T06:12:59;-1.00;99.90
16515;DHT22;8370;52.556;7.970;2022-11-20T06:15:24;-0.90;99.90
16515;DHT22;8370;52.556;7.970;2022-11-20T06:17:53;-0.90;99.90
16515;DHT22;8370;52.556;7.970;2022-11-20T06:20:20;-0.90;99.90
16515;DHT22;8370;52.556;7.970;2022-11-20T06:22:46;-0.90;99.90
16515;DHT22;8370;52.556;7.970;2022-11-20T06:25:11;-0.90;99.90
16515;DHT22;8370;52.556;7.970;2022-11-20T06:27:37;-0.90;99.90
16515;DHT22;8370;52.556;7.970;2022-11-20T06:30:03;-0.80;99.90
16515;DHT22;8370;52.556;7.970;2022-11-20T06:32:29;-0.80;99.90
16515;DHT22;8370;52.556;7.970;2022-11-20T06:34:54;-0.80;99.90
16515;DHT22;8370;52.556;7.970;2022-11-20T06:37:20;-0.80;99.90
16515;DHT22;8370;52.556;7.970;2022-11-20T06:39:45;-0.80;99.90
16515;DHT22;8370;52.556;7.970;2022-11-20T06:42:11;-0.70;99.90
16515;DHT22;8370;52.556;7.970;2022-11-20T06:44:36;-0.80;99.90
16515;DHT22;8370;52.556;7.970;2022-11-20T06:47:02;-0.70;99.90
16515;DHT22;8370;52.556;7.970;2022-11-20T06:49:27;-0.70;99.90
16515;DHT22;8370;52.556;7.970;2022-11-20T06:51:53;-0.70;99.90
16515;DHT22;8370;52.556;7.970;2022-11-20T06:54:18;-0.70;99.90
16515;DHT22;8370;52.556;7.970;2022-11-20T06:56:47;-0.70;99.90
16515;DHT22;8370;52.556;7.970;2022-11-20T06:59:13;-0.70;99.90
16515;DHT22;8370;52.556;7.970;2022-11-20T07:01:38;-0.70;99.90
16515;DHT22;8370;52.556;7.970;2022-11-20T07:04:04;-0.70;99.90
16515;DHT22;8370;52.556;7.970;2022-11-20T07:06:30;-0.70;99.90
16515;DHT22;8370;52.556;7.970;2022-11-20T07:08:56;-0.70;99.90
16515;DHT22;8370;52.556;7.970;2022-11-20T07:11:21;-0.70;99.90
16515;DHT22;8370;52.556;7.970;2022-11-20T07:13:47;-0.80;99.90
16515;DHT22;8370;52.556;7.970;2022-11-20T07:16:13;-0.80;99.90
16515;DHT22;8370;52.556;7.970;2022-11-20T07:18:38;-0.80;99.90
16515;DHT22;8370;52.556;7.970;2022-11-20T07:21:06;-0.90;99.90
16515;DHT22;8370;52.556;7.970;2022-11-20T07:23:32;-0.90;99.90
16515;DHT22;8370;52.556;7.970;2022-11-20T07:26:02;-0.90;99.90
16515;DHT22;8370;52.556;7.970;2022-11-20T07:28:27;-1.00;99.90
16515;DHT22;8370;52.556;7.970;2022-11-20T07:30:53;-0.90;99.90
16515;DHT22;8370;52.556;7.970;2022-11-20T07:33:19;-0.90;99.90
16515;DHT22;8370;52.556;7.970;2022-11-20T07:35:45;-0.90;99.90
16515;DHT22;8370;52.556;7.970;2022-11-20T07:38:11;-0.90;99.90
16515;DHT22;8370;52.556;7.970;2022-11-20T07:40:36;-0.80;99.90
16515;DHT22;8370;52.556;7.970;2022-11-20T07:43:02;-0.80;99.90
16515;DHT22;8370;52.556;7.970;2022-11-20T07:45:27;-0.80;99.90
16515;DHT22;8370;52.556;7.970;2022-11-20T07:47:53;-0.70;99.90
16515;DHT22;8370;52.556;7.970;2022-11-20T07:50:19;-0.60;99.90
16515;DHT22;8370;52.556;7.970;2022-11-20T07:52:44;-0.60;99.90
16515;DHT22;8370;52.556;7.970;2022-11-20T07:55:11;-0.50;99.90
16515;DHT22;8370;52.556;7.970;2022-11-20T07:57:36;-0.50;99.90
16515;DHT22;8370;52.556;7.970;2022-11-20T08:00:07;-0.50;99.90
16515;DHT22;8370;52.556;7.970;2022-11-20T08:02:40;-0.40;99.90
16515;DHT22;8370;52.556;7.970;2022-11-20T08:05:06;-0.40;99.90
16515;DHT22;8370;52.556;7.970;2022-11-20T08:07:40;-0.40;99.90
16515;DHT22;8370;52.556;7.970;2022-11-20T08:10:07;-0.40;99.90
16515;DHT22;8370;52.556;7.970;2022-11-20T08:12:33;-0.30;99.90
16515;DHT22;8370;52.556;7.970;2022-11-20T08:15:17;-0.40;99.90
16515;DHT22;8370;52.556;7.970;2022-11-20T08:17:42;-0.30;99.90
16515;DHT22;8370;52.556;7.970;2022-11-20T08:20:09;-0.30;99.90
16515;DHT22;8370;52.556;7.970;2022-11-20T08:22:34;-0.30;99.90
16515;DHT22;8370;52.556;7.970;2022-11-20T08:25:00;-0.20;99.90
16515;DHT22;8370;52.556;7.970;2022-11-20T08:27:26;-0.30;99.90
16515;DHT22;8370;52.556;7.970;2022-11-20T08:29:51;-0.30;99.90
16515;DHT22;8370;52.556;7.970;2022-11-20T08:32:17;-0.20;99.90
16515;DHT22;8370;52.556;7.970;2022-11-20T08:34:42;-0.20;99.90
16515;DHT22;8370;52.556;7.970;2022-11-20T08:37:08;-0.20;99.90
16515;DHT22;8370;52.556;7.970;2022-11-20T08:39:33;-0.10;99.90
16515;DHT22;8370;52.556;7.970;2022-11-20T08:41:59;0.00;99.90
16515;DHT22;8370;52.556;7.970;2022-11-20T08:44:24;0.00;99.90
16515;DHT22;8370;52.556;7.970;2022-11-20T08:46:50;0.10;99.90
16515;DHT22;8370;52.556;7.970;2022-11-20T08:49:16;0.10;99.90
16515;DHT22;8370;52.556;7.970;2022-11-20T08:51:42;0.10;99.90
16515;DHT22;8370;52.556;7.970;2022-11-20T08:54:07;0.10;99.90
16515;DHT22;8370;52.556;7.970;2022-11-20T08:56:33;0.10;99.90
16515;DHT22;8370;52.556;7.970;2022-11-20T08:58:59;0.10;99.90
16515;DHT22;8370;52.556;7.970;2022-11-20T09:01:25;0.20;99.90
16515;DHT22;8370;52.556;7.970;2022-11-20T09:03:51;0.20;99.90
16515;DHT22;8370;52.556;7.970;2022-11-20T09:06:17;0.20;99.90
16515;DHT22;8370;52.556;7.970;2022-11-20T09:08:43;0.20;99.90
16515;DHT22;8370;52.556;7.970;2022-11-20T09:11:09;0.20;99.90
16515;DHT22;8370;52.556;7.970;2022-11-20T09:13:35;0.20;99.90
16515;DHT22;8370;52.556;7.970;2022-11-20T09:16:06;0.30;99.90
16515;DHT22;8370;52.556;7.970;2022-11-20T09:18:32;0.30;99.90
16515;DHT22;8370;52.556;7.970;2022-11-20T09:21:00;0.40;99.90
16515;DHT22;8370;52.556;7.970;2022-11-20T09:23:27;0.50;99.90
16515;DHT22;8370;52.556;7.970;2022-11-20T09:25:53;0.50;99.90
16515;DHT22;8370;52.556;7.970;2022-11-20T09:28:21;0.50;99.90
16515;DHT22;8370;52.556;7.970;2022-11-20T09:30:47;0.60;99.90
16515;DHT22;8370;52.556;7.970;2022-11-20T09:33:12;0.60;99.90
16515;DHT22;8370;52.556;7.970;2022-11-20T09:35:38;0.60;99.90
16515;DHT22;8370;52.556;7.970;2022-11-20T09:38:06;0.50;99.90
16515;DHT22;8370;52.556;7.970;2022-11-20T09:40:35;0.50;99.90
16515;DHT22;8370;52.556;7.970;2022-11-20T09:43:49;0.50;99.90
16515;DHT22;8370;52.556;7.970;2022-11-20T09:49:46;0.60;99.90
16515;DHT22;8370;52.556;7.970;2022-11-20T09:55:08;0.60;99.90
16515;DHT22;8370;52.556;7.970;2022-11-20T09:57:42;0.60;99.90
16515;DHT22;8370;52.556;7.970;2022-11-20T10:00:13;0.70;99.90
16515;DHT22;8370;52.556;7.970;2022-11-20T10:03:06;0.70;99.90
16515;DHT22;8370;52.556;7.970;2022-11-20T10:05:54;0.70;99.90
16515;DHT22;8370;52.556;7.970;2022-11-20T10:08:25;0.70;99.90
16515;DHT22;8370;52.556;7.970;2022-11-20T10:11:04;0.60;99.90
16515;DHT22;8370;52.556;7.970;2022-11-20T10:16:52;0.50;99.90
16515;DHT22;8370;52.556;7.970;2022-11-20T10:19:14;0.50;99.90
16515;DHT22;8370;52.556;7.970;2022-11-20T10:22:00;0.50;99.90
16515;DHT22;8370;52.556;7.970;2022-11-20T10:27:25;0.60;99.90
16515;DHT22;8370;52.556;7.970;2022-11-20T10:32:34;0.90;99.90
16515;DHT22;8370;52.556;7.970;2022-11-20T10:35:05;1.10;99.90
16515;DHT22;8370;52.556;7.970;2022-11-20T10:37:35;1.30;99.90
16515;DHT22;8370;52.556;7.970;2022-11-20T10:40:35;1.50;99.90
16515;DHT22;8370;52.556;7.970;2022-11-20T10:46:00;1.90;99.90
16515;DHT22;8370;52.556;7.970;2022-11-20T10:48:28;2.00;99.90
16515;DHT22;8370;52.556;7.970;2022-11-20T10:51:17;2.10;99.90
16515;DHT22;8370;52.556;7.970;2022-11-20T10:56:22;1.70;99.90
16515;DHT22;8370;52.556;7.970;2022-11-20T10:59:27;1.60;99.90
16515;DHT22;8370;52.556;7.970;2022-11-20T11:01:55;1.60;99.90
16515;DHT22;8370;52.556;7.970;2022-11-20T11:04:38;1.70;99.90
16515;DHT22;8370;52.556;7.970;2022-11-20T11:07:25;1.80;99.90
16515;DHT22;8370;52.556;7.970;2022-11-20T11:09:54;2.10;99.90
16515;DHT22;8370;52.556;7.970;2022-11-20T11:12:22;2.30;99.90
16515;DHT22;8370;52.556;7.970;2022-11-20T11:14:50;2.40;99.90
16515;DHT22;8370;52.556;7.970;2022-11-20T11:17:30;2.40;99.90
16515;DHT22;8370;52.556;7.970;2022-11-20T11:20:11;2.40;99.90
16515;DHT22;8370;52.556;7.970;2022-11-20T11:22:48;2.60;99.90
16515;DHT22;8370;52.556;7.970;2022-11-20T11:25:27;2.60;99.90
16515;DHT22;8370;52.556;7.970;2022-11-20T11:27:55;2.60;99.90
16515;DHT22;8370;52.556;7.970;2022-11-20T11:30:23;2.70;99.90
16515;DHT22;8370;52.556;7.970;2022-11-20T11:32:49;2.90;99.90
16515;DHT22;8370;52.556;7.970;2022-11-20T11:35:23;3.20;99.90
16515;DHT22;8370;52.556;7.970;2022-11-20T11:37:51;3.70;99.90
16515;DHT22;8370;52.556;7.970;2022-11-20T11:40:19;4.10;99.90
16515;DHT22;8370;52.556;7.970;2022-11-20T11:43:28;4.20;99.90
16515;DHT22;8370;52.556;7.970;2022-11-20T11:46:32;4.20;99.90
16515;DHT22;8370;52.556;7.970;2022-11-20T11:49:00;3.90;99.90
16515;DHT22;8370;52.556;7.970;2022-11-20T11:51:38;3.70;99.90
16515;DHT22;8370;52.556;7.970;2022-11-20T11:54:16;3.60;99.90
16515;DHT22;8370;52.556;7.970;2022-11-20T11:56:43;3.50;99.90
16515;DHT22;8370;52.556;7.970;2022-11-20T11:59:12;3.50;99.90
16515;DHT22;8370;52.556;7.970;2022-11-20T12:01:45;3.60;99.90
16515;DHT22;8370;52.556;7.970;2022-11-20T12:04:43;3.70;99.90
16515;DHT22;8370;52.556;7.970;2022-11-20T12:07:41;3.80;99.90
16515;DHT22;8370;52.556;7.970;2022-11-20T12:15:44;4.10;99.90
16515;DHT22;8370;52.556;7.970;2022-11-20T12:18:18;4.30;99.90
16515;DHT22;8370;52.556;7.970;2022-11-20T12:21:24;4.60;99.90
16515;DHT22;8370;52.556;7.970;2022-11-20T12:24:03;4.90;99.90
16515;DHT22;8370;52.556;7.970;2022-11-20T12:40:32;5.00;99.90
16515;DHT22;8370;52.556;7.970;2022-11-20T12:46:07;4.60;99.90
16515;DHT22;8370;52.556;7.970;2022-11-20T12:54:31;4.50;99.90
16515;DHT22;8370;52.556;7.970;2022-11-20T13:05:04;5.80;99.90
16515;DHT22;8370;52.556;7.970;2022-11-20T13:07:32;6.30;99.90
16515;DHT22;8370;52.556;7.970;2022-11-20T13:09:59;6.60;99.90
16515;DHT22;8370;52.556;7.970;2022-11-20T13:12:40;7.10;99.90
16515;DHT22;8370;52.556;7.970;2022-11-20T13:17:59;7.40;99.90
16515;DHT22;8370;52.556;7.970;2022-11-20T13:20:25;6.90;99.90
16515;DHT22;8370;52.556;7.970;2022-11-20T13:22:53;6.40;99.90
16515;DHT22;8370;52.556;7.970;2022-11-20T13:27:53;5.70;99.90
16515;DHT22;8370;52.556;7.970;2022-11-20T13:30:21;5.50;99.90
16515;DHT22;8370;52.556;7.970;2022-11-20T13:32:56;5.20;99.90
16515;DHT22;8370;52.556;7.970;2022-11-20T13:35:34;5.00;99.90
16515;DHT22;8370;52.556;7.970;2022-11-20T13:38:09;4.70;99.90
16515;DHT22;8370;52.556;7.970;2022-11-20T13:40:37;4.30;99.90
16515;DHT22;8370;52.556;7.970;2022-11-20T13:45:59;3.60;99.90
16515;DHT22;8370;52.556;7.970;2022-11-20T13:48:31;3.40;99.90
16515;DHT22;8370;52.556;7.970;2022-11-20T14:02:13;2.90;99.90
16515;DHT22;8370;52.556;7.970;2022-11-20T14:04:43;2.90;99.90
16515;DHT22;8370;52.556;7.970;2022-11-20T14:07:10;2.90;99.90
16515;DHT22;8370;52.556;7.970;2022-11-20T14:09:36;2.90;99.90
16515;DHT22;8370;52.556;7.970;2022-11-20T14:12:03;2.90;99.90
16515;DHT22;8370;52.556;7.970;2022-11-20T14:14:30;2.80;99.90
16515;DHT22;8370;52.556;7.970;2022-11-20T14:17:07;2.80;99.90
16515;DHT22;8370;52.556;7.970;2022-11-20T14:19:33;2.70;99.90
16515;DHT22;8370;52.556;7.970;2022-11-20T14:22:19;2.50;99.90
16515;DHT22;8370;52.556;7.970;2022-11-20T14:24:46;2.50;99.90
16515;DHT22;8370;52.556;7.970;2022-11-20T14:27:18;2.40;99.90
16515;DHT22;8370;52.556;7.970;2022-11-20T14:29:46;2.40;99.90
16515;DHT22;8370;52.556;7.970;2022-11-20T14:32:15;2.30;99.90
16515;DHT22;8370;52.556;7.970;2022-11-20T14:34:43;2.30;99.90
16515;DHT22;8370;52.556;7.970;2022-11-20T14:37:19;2.20;99.90
16515;DHT22;8370;52.556;7.970;2022-11-20T14:39:53;2.20;99.90
16515;DHT22;8370;52.556;7.970;2022-11-20T14:42:22;2.10;99.90
16515;DHT22;8370;52.556;7.970;2022-11-20T14:44:49;2.10;99.90
16515;DHT22;8370;52.556;7.970;2022-11-20T14:47:22;2.00;99.90
16515;DHT22;8370;52.556;7.970;2022-11-20T14:49:50;2.00;99.90
16515;DHT22;8370;52.556;7.970;2022-11-20T14:52:19;1.90;99.90
16515;DHT22;8370;52.556;7.970;2022-11-20T14:54:55;1.90;99.90
16515;DHT22;8370;52.556;7.970;2022-11-20T14:57:32;1.90;99.90
16515;DHT22;8370;52.556;7.970;2022-11-20T15:00:06;1.80;99.90
16515;DHT22;8370;52.556;7.970;2022-11-20T15:02:32;1.80;99.90
16515;DHT22;8370;52.556;7.970;2022-11-20T15:05:00;1.80;99.90
16515;DHT22;8370;52.556;7.970;2022-11-20T15:07:32;1.80;99.90
16515;DHT22;8370;52.556;7.970;2022-11-20T15:12:31;1.80;99.90
16515;DHT22;8370;52.556;7.970;2022-11-20T15:14:58;1.70;99.90
16515;DHT22;8370;52.556;7.970;2022-11-20T15:17:23;1.70;99.90
16515;DHT22;8370;52.556;7.970;2022-11-20T15:19:49;1.70;99.90
16515;DHT22;8370;52.556;7.970;2022-11-20T15:22:15;1.60;99.90
16515;DHT22;8370;52.556;7.970;2022-11-20T15:24:43;1.60;99.90
16515;DHT22;8370;52.556;7.970;2022-11-20T15:27:09;1.60;99.90
16515;DHT22;8370;52.556;7.970;2022-11-20T15:29:35;1.50;99.90
16515;DHT22;8370;52.556;7.970;2022-11-20T15:32:01;1.50;99.90
16515;DHT22;8370;52.556;7.970;2022-11-20T15:34:28;1.50;99.90
16515;DHT22;8370;52.556;7.970;2022-11-20T15:36:53;1.50;99.90
16515;DHT22;8370;52.556;7.970;2022-11-20T15:39:20;1.50;99.90
16515;DHT22;8370;52.556;7.970;2022-11-20T15:41:46;1.50;99.90
16515;DHT22;8370;52.556;7.970;2022-11-20T15:44:11;1.50;99.90
16515;DHT22;8370;52.556;7.970;2022-11-20T15:46:40;1.50;99.90
16515;DHT22;8370;52.556;7.970;2022-11-20T15:49:13;1.50;99.90
16515;DHT22;8370;52.556;7.970;2022-11-20T15:51:45;1.50;99.90
16515;DHT22;8370;52.556;7.970;2022-11-20T15:54:17;1.50;99.90
16515;DHT22;8370;52.556;7.970;2022-11-20T15:56:48;1.40;99.90
16515;DHT22;8370;52.556;7.970;2022-11-20T15:59:14;1.50;99.90
16515;DHT22;8370;52.556;7.970;2022-11-20T16:01:40;1.50;99.90
16515;DHT22;8370;52.556;7.970;2022-11-20T16:04:14;1.50;99.90
16515;DHT22;8370;52.556;7.970;2022-11-20T16:06:40;1.50;99.90
16515;DHT22;8370;52.556;7.970;2022-11-20T16:09:06;1.50;99.90
16515;DHT22;8370;52.556;7.970;2022-11-20T16:11:32;1.50;99.90
16515;DHT22;8370;52.556;7.970;2022-11-20T16:13:58;1.50;99.90
16515;DHT22;8370;52.556;7.970;2022-11-20T16:16:42;1.50;99.90
16515;DHT22;8370;52.556;7.970;2022-11-20T16:19:12;1.50;99.90
16515;DHT22;8370;52.556;7.970;2022-11-20T16:21:38;1.50;99.90
16515;DHT22;8370;52.556;7.970;2022-11-20T16:24:11;1.50;99.90
16515;DHT22;8370;52.556;7.970;2022-11-20T16:26:38;1.50;99.90
16515;DHT22;8370;52.556;7.970;2022-11-20T16:29:05;1.50;99.90
16515;DHT22;8370;52.556;7.970;2022-11-20T16:31:31;1.50;99.90
16515;DHT22;8370;52.556;7.970;2022-11-20T16:33:59;1.50;99.90
16515;DHT22;8370;52.556;7.970;2022-11-20T16:36:27;1.50;99.90
16515;DHT22;8370;52.556;7.970;2022-11-20T16:38:55;1.50;99.90
16515;DHT22;8370;52.556;7.970;2022-11-20T16:41:21;1.50;99.90
16515;DHT22;8370;52.556;7.970;2022-11-20T16:43:52;1.50;99.90
16515;DHT22;8370;52.556;7.970;2022-11-20T16:46:22;1.50;99.90
16515;DHT22;8370;52.556;7.970;2022-11-20T16:48:56;1.40;99.90
16515;DHT22;8370;52.556;7.970;2022-11-20T16:51:23;1.40;99.90
16515;DHT22;8370;52.556;7.970;2022-11-20T16:53:49;1.40;99.90
16515;DHT22;8370;52.556;7.970;2022-11-20T16:56:17;1.40;99.90
16515;DHT22;8370;52.556;7.970;2022-11-20T16:58:44;1.40;99.90
16515;DHT22;8370;52.556;7.970;2022-11-20T17:01:12;1.40;99.90
16515;DHT22;8370;52.556;7.970;2022-11-20T17:03:42;1.40;99.90
16515;DHT22;8370;52.556;7.970;2022-11-20T17:06:17;1.40;99.90
16515;DHT22;8370;52.556;7.970;2022-11-20T17:08:43;1.50;99.90
16515;DHT22;8370;52.556;7.970;2022-11-20T17:11:11;1.40;99.90
16515;DHT22;8370;52.556;7.970;2022-11-20T17:13:37;1.40;99.90
16515;DHT22;8370;52.556;7.970;2022-11-20T17:16:05;1.50;99.90
16515;DHT22;8370;52.556;7.970;2022-11-20T17:18:31;1.50;99.90
16515;DHT22;8370;52.556;7.970;2022-11-20T17:20:57;1.50;99.90
16515;DHT22;8370;52.556;7.970;2022-11-20T17:23:27;1.50;99.90
16515;DHT22;8370;52.556;7.970;2022-11-20T17:26:00;1.50;99.90
16515;DHT22;8370;52.556;7.970;2022-11-20T17:28:25;1.60;99.90